sensor_id;sensor_type;location;lat;lon;timestamp;P1;durP1;ratioP1;P2;durP2;ratioP2
4652;SDS011;9900;48.738;9.306;2023-09-18T00:00:09;6.30;;;4.07;;
4652;SDS011;9900;48.738;9.306;2023-09-18T00:02:39;7.10;;;3.63;;
4652;SDS011;9900;48.738;9.306;2023-09-18T00:05:09;4.43;;;3.90;;
4652;SDS011;9900;48.738;9.306;2023-09-18T00:07:38;9.90;;;3.97;;
4652;SDS011;9900;48.738;9.306;2023-09-18T00:10:07;5.03;;;3.70;;
4652;SDS011;9900;48.738;9.306;2023-09-18T00:12:39;11.23;;;3.60;;
4652;SDS011;9900;48.738;9.306;2023-09-18T00:15:08;7.03;;;3.40;;
4652;SDS011;9900;48.738;9.306;2023-09-18T00:17:37;8.33;;;4.20;;
4652;SDS011;9900;48.738;9.306;2023-09-18T00:20:06;6.20;;;3.43;;
4652;SDS011;9900;48.738;9.306;2023-09-18T00:22:37;7.73;;;3.70;;
4652;SDS011;9900;48.738;9.306;2023-09-18T00:25:06;5.67;;;3.40;;
4652;SDS011;9900;48.738;9.306;2023-09-18T00:27:35;4.80;;;4.20;;
4652;SDS011;9900;48.738;9.306;2023-09-18T00:30:06;6.60;;;3.50;;
4652;SDS011;9900;48.738;9.306;2023-09-18T00:32:36;7.13;;;3.77;;
4652;SDS011;9900;48.738;9.306;2023-09-18T00:35:05;4.90;;;3.43;;
4652;SDS011;9900;48.738;9.306;2023-09-18T00:37:34;7.60;;;3.50;;
4652;SDS011;9900;48.738;9.306;2023-09-18T00:40:04;5.97;;;4.00;;
4652;SDS011;9900;48.738;9.306;2023-09-18T00:42:34;3.90;;;3.53;;
4652;SDS011;9900;48.738;9.306;2023-09-18T00:45:03;5.47;;;4.10;;
4652;SDS011;9900;48.738;9.306;2023-09-18T00:47:35;4.03;;;3.53;;
4652;SDS011;9900;48.738;9.306;2023-09-18T00:50:05;7.23;;;3.70;;
4652;SDS011;9900;48.738;9.306;2023-09-18T00:52:37;6.87;;;4.40;;
4652;SDS011;9900;48.738;9.306;2023-09-18T00:55:06;5.83;;;3.63;;
4652;SDS011;9900;48.738;9.306;2023-09-18T00:57:36;7.90;;;3.47;;
4652;SDS011;9900;48.738;9.306;2023-09-18T01:00:08;5.20;;;3.90;;
4652;SDS011;9900;48.738;9.306;2023-09-18T01:02:37;5.70;;;3.40;;
4652;SDS011;9900;48.738;9.306;2023-09-18T01:05:08;4.50;;;3.53;;
4652;SDS011;9900;48.738;9.306;2023-09-18T01:07:37;4.03;;;3.60;;
4652;SDS011;9900;48.738;9.306;2023-09-18T01:10:06;6.60;;;4.23;;
4652;SDS011;9900;48.738;9.306;2023-09-18T01:12:36;4.50;;;3.90;;
4652;SDS011;9900;48.738;9.306;2023-09-18T01:15:14;4.20;;;3.70;;
4652;SDS011;9900;48.738;9.306;2023-09-18T01:17:44;6.03;;;3.50;;
4652;SDS011;9900;48.738;9.306;2023-09-18T01:20:14;8.23;;;3.90;;
4652;SDS011;9900;48.738;9.306;2023-09-18T01:22:44;3.90;;;3.50;;
4652;SDS011;9900;48.738;9.306;2023-09-18T01:25:13;7.97;;;4.27;;
4652;SDS011;9900;48.738;9.306;2023-09-18T01:27:41;4.57;;;4.17;;
4652;SDS011;9900;48.738;9.306;2023-09-18T01:30:11;7.53;;;3.67;;
4652;SDS011;9900;48.738;9.306;2023-09-18T01:32:41;6.30;;;4.20;;
4652;SDS011;9900;48.738;9.306;2023-09-18T01:35:12;14.13;;;3.70;;
4652;SDS011;9900;48.738;9.306;2023-09-18T01:37:41;6.40;;;3.60;;
4652;SDS011;9900;48.738;9.306;2023-09-18T01:40:11;6.93;;;3.93;;
4652;SDS011;9900;48.738;9.306;2023-09-18T01:42:40;5.50;;;4.10;;
4652;SDS011;9900;48.738;9.306;2023-09-18T01:45:09;5.40;;;3.47;;
4652;SDS011;9900;48.738;9.306;2023-09-18T01:47:38;5.27;;;3.40;;
4652;SDS011;9900;48.738;9.306;2023-09-18T01:50:07;3.60;;;3.23;;
4652;SDS011;9900;48.738;9.306;2023-09-18T01:52:37;5.70;;;3.60;;
4652;SDS011;9900;48.738;9.306;2023-09-18T01:55:06;6.93;;;3.70;;
4652;SDS011;9900;48.738;9.306;2023-09-18T01:57:37;9.40;;;4.20;;
4652;SDS011;9900;48.738;9.306;2023-09-18T02:00:06;6.23;;;3.70;;
4652;SDS011;9900;48.738;9.306;2023-09-18T02:02:37;8.93;;;4.20;;
4652;SDS011;9900;48.738;9.306;2023-09-18T02:05:25;3.73;;;3.40;;
4652;SDS011;9900;48.738;9.306;2023-09-18T02:07:55;7.30;;;4.10;;
4652;SDS011;9900;48.738;9.306;2023-09-18T02:10:24;4.23;;;3.53;;
4652;SDS011;9900;48.738;9.306;2023-09-18T02:12:54;10.23;;;4.30;;
4652;SDS011;9900;48.738;9.306;2023-09-18T02:15:23;9.93;;;3.50;;
4652;SDS011;9900;48.738;9.306;2023-09-18T02:17:52;5.43;;;3.40;;
4652;SDS011;9900;48.738;9.306;2023-09-18T02:20:21;4.83;;;3.60;;
4652;SDS011;9900;48.738;9.306;2023-09-18T02:22:49;6.63;;;3.93;;
4652;SDS011;9900;48.738;9.306;2023-09-18T02:25:18;4.40;;;3.50;;
4652;SDS011;9900;48.738;9.306;2023-09-18T02:27:47;9.23;;;4.20;;
4652;SDS011;9900;48.738;9.306;2023-09-18T02:30:18;7.10;;;3.50;;
4652;SDS011;9900;48.738;9.306;2023-09-18T02:32:47;10.53;;;4.27;;
4652;SDS011;9900;48.738;9.306;2023-09-18T02:35:16;10.23;;;4.20;;
4652;SDS011;9900;48.738;9.306;2023-09-18T02:37:45;8.97;;;4.03;;
4652;SDS011;9900;48.738;9.306;2023-09-18T02:40:14;8.50;;;4.07;;
4652;SDS011;9900;48.738;9.306;2023-09-18T02:42:43;7.97;;;3.27;;
4652;SDS011;9900;48.738;9.306;2023-09-18T02:45:12;6.77;;;3.57;;
4652;SDS011;9900;48.738;9.306;2023-09-18T02:47:42;8.93;;;3.90;;
4652;SDS011;9900;48.738;9.306;2023-09-18T02:50:10;7.20;;;3.17;;
4652;SDS011;9900;48.738;9.306;2023-09-18T02:52:39;8.13;;;4.13;;
4652;SDS011;9900;48.738;9.306;2023-09-18T02:55:08;6.07;;;3.20;;
4652;SDS011;9900;48.738;9.306;2023-09-18T02:57:38;9.33;;;4.80;;
4652;SDS011;9900;48.738;9.306;2023-09-18T03:00:07;10.27;;;4.53;;
4652;SDS011;9900;48.738;9.306;2023-09-18T03:02:36;5.80;;;3.87;;
4652;SDS011;9900;48.738;9.306;2023-09-18T03:05:07;5.40;;;4.00;;
4652;SDS011;9900;48.738;9.306;2023-09-18T03:07:37;10.07;;;4.20;;
4652;SDS011;9900;48.738;9.306;2023-09-18T03:10:06;4.80;;;3.50;;
4652;SDS011;9900;48.738;9.306;2023-09-18T03:12:35;10.10;;;4.20;;
4652;SDS011;9900;48.738;9.306;2023-09-18T03:15:04;7.50;;;4.03;;
4652;SDS011;9900;48.738;9.306;2023-09-18T03:17:34;6.57;;;3.70;;
4652;SDS011;9900;48.738;9.306;2023-09-18T03:20:04;8.50;;;3.77;;
4652;SDS011;9900;48.738;9.306;2023-09-18T03:22:36;9.53;;;4.10;;
4652;SDS011;9900;48.738;9.306;2023-09-18T03:25:05;4.83;;;3.37;;
4652;SDS011;9900;48.738;9.306;2023-09-18T03:27:34;7.57;;;3.73;;
4652;SDS011;9900;48.738;9.306;2023-09-18T03:30:03;8.17;;;4.17;;
4652;SDS011;9900;48.738;9.306;2023-09-18T03:32:33;9.90;;;4.57;;
4652;SDS011;9900;48.738;9.306;2023-09-18T03:35:03;8.00;;;3.97;;
4652;SDS011;9900;48.738;9.306;2023-09-18T03:37:34;7.97;;;4.10;;
4652;SDS011;9900;48.738;9.306;2023-09-18T03:40:03;8.57;;;4.47;;
4652;SDS011;9900;48.738;9.306;2023-09-18T03:42:32;8.40;;;3.90;;
4652;SDS011;9900;48.738;9.306;2023-09-18T03:45:01;4.70;;;3.87;;
4652;SDS011;9900;48.738;9.306;2023-09-18T03:47:30;6.10;;;3.70;;
4652;SDS011;9900;48.738;9.306;2023-09-18T03:49:59;5.30;;;3.50;;
4652;SDS011;9900;48.738;9.306;2023-09-18T03:52:28;6.97;;;4.13;;
4652;SDS011;9900;48.738;9.306;2023-09-18T03:54:58;8.00;;;4.00;;
4652;SDS011;9900;48.738;9.306;2023-09-18T03:57:27;8.60;;;4.37;;
4652;SDS011;9900;48.738;9.306;2023-09-18T03:59:55;10.47;;;4.13;;
4652;SDS011;9900;48.738;9.306;2023-09-18T04:02:25;12.63;;;4.30;;
4652;SDS011;9900;48.738;9.306;2023-09-18T04:04:54;8.57;;;4.67;;
4652;SDS011;9900;48.738;9.306;2023-09-18T04:07:23;8.50;;;3.87;;
4652;SDS011;9900;48.738;9.306;2023-09-18T04:09:51;9.30;;;3.80;;
4652;SDS011;9900;48.738;9.306;2023-09-18T04:12:21;6.47;;;3.93;;
4652;SDS011;9900;48.738;9.306;2023-09-18T04:14:50;6.07;;;3.80;;
4652;SDS011;9900;48.738;9.306;2023-09-18T04:17:19;7.37;;;4.10;;
4652;SDS011;9900;48.738;9.306;2023-09-18T04:19:48;8.53;;;3.50;;
4652;SDS011;9900;48.738;9.306;2023-09-18T04:22:17;18.40;;;4.10;;
4652;SDS011;9900;48.738;9.306;2023-09-18T04:24:46;8.57;;;4.93;;
4652;SDS011;9900;48.738;9.306;2023-09-18T04:27:14;11.93;;;4.67;;
4652;SDS011;9900;48.738;9.306;2023-09-18T04:29:44;5.77;;;3.83;;
4652;SDS011;9900;48.738;9.306;2023-09-18T04:32:13;6.60;;;3.60;;
4652;SDS011;9900;48.738;9.306;2023-09-18T04:34:42;7.57;;;4.10;;
4652;SDS011;9900;48.738;9.306;2023-09-18T04:37:11;8.17;;;3.93;;
4652;SDS011;9900;48.738;9.306;2023-09-18T04:39:40;12.43;;;4.60;;
4652;SDS011;9900;48.738;9.306;2023-09-18T04:42:09;13.07;;;3.27;;
4652;SDS011;9900;48.738;9.306;2023-09-18T04:44:37;7.47;;;3.83;;
4652;SDS011;9900;48.738;9.306;2023-09-18T04:47:07;8.63;;;4.00;;
4652;SDS011;9900;48.738;9.306;2023-09-18T04:49:36;6.43;;;4.00;;
4652;SDS011;9900;48.738;9.306;2023-09-18T04:52:05;9.07;;;4.30;;
4652;SDS011;9900;48.738;9.306;2023-09-18T04:54:34;9.30;;;4.70;;
4652;SDS011;9900;48.738;9.306;2023-09-18T04:57:03;5.07;;;3.50;;
4652;SDS011;9900;48.738;9.306;2023-09-18T04:59:32;7.27;;;3.10;;
4652;SDS011;9900;48.738;9.306;2023-09-18T05:02:02;9.17;;;3.73;;
4652;SDS011;9900;48.738;9.306;2023-09-18T05:04:33;10.53;;;3.77;;
4652;SDS011;9900;48.738;9.306;2023-09-18T05:07:02;9.07;;;4.00;;
4652;SDS011;9900;48.738;9.306;2023-09-18T05:09:32;10.80;;;4.20;;
4652;SDS011;9900;48.738;9.306;2023-09-18T05:12:02;9.70;;;3.83;;
4652;SDS011;9900;48.738;9.306;2023-09-18T05:14:35;6.13;;;3.53;;
4652;SDS011;9900;48.738;9.306;2023-09-18T05:17:04;6.40;;;3.13;;
4652;SDS011;9900;48.738;9.306;2023-09-18T05:19:34;7.00;;;3.17;;
4652;SDS011;9900;48.738;9.306;2023-09-18T05:22:03;18.93;;;4.37;;
4652;SDS011;9900;48.738;9.306;2023-09-18T05:24:32;6.83;;;3.97;;
4652;SDS011;9900;48.738;9.306;2023-09-18T05:27:00;7.60;;;4.40;;
4652;SDS011;9900;48.738;9.306;2023-09-18T05:29:30;7.03;;;3.80;;
4652;SDS011;9900;48.738;9.306;2023-09-18T05:31:59;18.23;;;4.20;;
4652;SDS011;9900;48.738;9.306;2023-09-18T05:34:28;8.03;;;3.67;;
4652;SDS011;9900;48.738;9.306;2023-09-18T05:36:58;5.90;;;3.80;;
4652;SDS011;9900;48.738;9.306;2023-09-18T05:39:26;6.30;;;3.20;;
4652;SDS011;9900;48.738;9.306;2023-09-18T05:41:56;7.17;;;3.77;;
4652;SDS011;9900;48.738;9.306;2023-09-18T05:44:25;8.50;;;3.23;;
4652;SDS011;9900;48.738;9.306;2023-09-18T05:46:54;4.90;;;3.47;;
4652;SDS011;9900;48.738;9.306;2023-09-18T05:49:23;11.70;;;3.30;;
4652;SDS011;9900;48.738;9.306;2023-09-18T05:51:51;10.73;;;3.23;;
4652;SDS011;9900;48.738;9.306;2023-09-18T05:54:21;5.30;;;2.93;;
4652;SDS011;9900;48.738;9.306;2023-09-18T05:56:50;7.90;;;3.40;;
4652;SDS011;9900;48.738;9.306;2023-09-18T05:59:19;8.33;;;3.47;;
4652;SDS011;9900;48.738;9.306;2023-09-18T06:01:48;8.93;;;3.23;;
4652;SDS011;9900;48.738;9.306;2023-09-18T06:04:16;5.97;;;3.40;;
4652;SDS011;9900;48.738;9.306;2023-09-18T06:06:46;8.30;;;3.80;;
4652;SDS011;9900;48.738;9.306;2023-09-18T06:09:14;6.63;;;3.40;;
4652;SDS011;9900;48.738;9.306;2023-09-18T06:11:45;5.90;;;3.57;;
4652;SDS011;9900;48.738;9.306;2023-09-18T06:14:13;7.70;;;4.07;;
4652;SDS011;9900;48.738;9.306;2023-09-18T06:16:42;11.20;;;3.47;;
4652;SDS011;9900;48.738;9.306;2023-09-18T06:19:11;8.67;;;3.50;;
4652;SDS011;9900;48.738;9.306;2023-09-18T06:21:40;6.90;;;3.37;;
4652;SDS011;9900;48.738;9.306;2023-09-18T06:24:09;11.23;;;3.83;;
4652;SDS011;9900;48.738;9.306;2023-09-18T06:26:38;9.17;;;3.83;;
4652;SDS011;9900;48.738;9.306;2023-09-18T06:29:09;8.47;;;3.33;;
4652;SDS011;9900;48.738;9.306;2023-09-18T06:31:37;14.03;;;4.10;;
4652;SDS011;9900;48.738;9.306;2023-09-18T06:34:07;10.57;;;3.97;;
4652;SDS011;9900;48.738;9.306;2023-09-18T06:36:38;11.00;;;3.10;;
4652;SDS011;9900;48.738;9.306;2023-09-18T06:39:07;6.83;;;3.40;;
4652;SDS011;9900;48.738;9.306;2023-09-18T06:41:36;14.00;;;3.93;;
4652;SDS011;9900;48.738;9.306;2023-09-18T06:44:05;8.10;;;4.30;;
4652;SDS011;9900;48.738;9.306;2023-09-18T06:46:35;10.90;;;4.77;;
4652;SDS011;9900;48.738;9.306;2023-09-18T06:49:04;8.93;;;4.17;;
4652;SDS011;9900;48.738;9.306;2023-09-18T06:51:33;9.80;;;4.63;;
4652;SDS011;9900;48.738;9.306;2023-09-18T06:54:09;9.50;;;3.77;;
4652;SDS011;9900;48.738;9.306;2023-09-18T06:56:38;12.20;;;4.53;;
4652;SDS011;9900;48.738;9.306;2023-09-18T06:59:09;9.53;;;3.77;;
4652;SDS011;9900;48.738;9.306;2023-09-18T07:01:39;15.13;;;4.00;;
4652;SDS011;9900;48.738;9.306;2023-09-18T07:04:09;11.60;;;3.90;;
4652;SDS011;9900;48.738;9.306;2023-09-18T07:06:38;17.30;;;5.03;;
4652;SDS011;9900;48.738;9.306;2023-09-18T07:09:07;12.90;;;4.60;;
4652;SDS011;9900;48.738;9.306;2023-09-18T07:11:39;14.97;;;3.93;;
4652;SDS011;9900;48.738;9.306;2023-09-18T07:14:08;10.40;;;2.97;;
4652;SDS011;9900;48.738;9.306;2023-09-18T07:16:38;12.83;;;2.50;;
4652;SDS011;9900;48.738;9.306;2023-09-18T07:19:07;10.40;;;3.13;;
4652;SDS011;9900;48.738;9.306;2023-09-18T07:21:39;14.53;;;4.20;;
4652;SDS011;9900;48.738;9.306;2023-09-18T07:24:08;10.23;;;3.13;;
4652;SDS011;9900;48.738;9.306;2023-09-18T07:26:37;12.33;;;3.90;;
4652;SDS011;9900;48.738;9.306;2023-09-18T07:29:06;9.53;;;2.70;;
4652;SDS011;9900;48.738;9.306;2023-09-18T07:31:35;15.00;;;2.80;;
4652;SDS011;9900;48.738;9.306;2023-09-18T07:34:05;13.40;;;2.83;;
4652;SDS011;9900;48.738;9.306;2023-09-18T07:36:35;13.23;;;2.70;;
4652;SDS011;9900;48.738;9.306;2023-09-18T07:39:04;5.70;;;2.10;;
4652;SDS011;9900;48.738;9.306;2023-09-18T07:41:33;11.70;;;2.43;;
4652;SDS011;9900;48.738;9.306;2023-09-18T07:44:03;11.30;;;2.40;;
4652;SDS011;9900;48.738;9.306;2023-09-18T07:46:32;7.60;;;2.43;;
4652;SDS011;9900;48.738;9.306;2023-09-18T07:49:01;4.83;;;2.10;;
4652;SDS011;9900;48.738;9.306;2023-09-18T07:51:31;8.60;;;2.20;;
4652;SDS011;9900;48.738;9.306;2023-09-18T07:54:00;10.23;;;2.70;;
4652;SDS011;9900;48.738;9.306;2023-09-18T07:56:29;8.93;;;2.50;;
4652;SDS011;9900;48.738;9.306;2023-09-18T07:59:01;11.13;;;3.30;;
4652;SDS011;9900;48.738;9.306;2023-09-18T08:01:30;12.60;;;2.30;;
4652;SDS011;9900;48.738;9.306;2023-09-18T08:04:00;7.63;;;2.50;;
4652;SDS011;9900;48.738;9.306;2023-09-18T08:06:29;3.50;;;1.60;;
4652;SDS011;9900;48.738;9.306;2023-09-18T08:08:59;5.80;;;1.80;;
4652;SDS011;9900;48.738;9.306;2023-09-18T08:11:28;11.80;;;2.00;;
4652;SDS011;9900;48.738;9.306;2023-09-18T08:13:58;4.87;;;1.43;;
4652;SDS011;9900;48.738;9.306;2023-09-18T08:16:27;7.47;;;1.90;;
4652;SDS011;9900;48.738;9.306;2023-09-18T08:18:56;5.37;;;1.50;;
4652;SDS011;9900;48.738;9.306;2023-09-18T08:21:25;4.67;;;1.43;;
4652;SDS011;9900;48.738;9.306;2023-09-18T08:23:56;3.70;;;1.50;;
4652;SDS011;9900;48.738;9.306;2023-09-18T08:26:26;5.60;;;2.07;;
4652;SDS011;9900;48.738;9.306;2023-09-18T08:28:55;4.23;;;1.50;;
4652;SDS011;9900;48.738;9.306;2023-09-18T08:31:24;3.97;;;1.53;;
4652;SDS011;9900;48.738;9.306;2023-09-18T08:33:55;8.23;;;1.40;;
4652;SDS011;9900;48.738;9.306;2023-09-18T08:36:23;2.10;;;1.20;;
4652;SDS011;9900;48.738;9.306;2023-09-18T08:38:52;7.67;;;2.00;;
4652;SDS011;9900;48.738;9.306;2023-09-18T08:41:22;8.93;;;1.60;;
4652;SDS011;9900;48.738;9.306;2023-09-18T08:44:03;5.63;;;1.73;;
4652;SDS011;9900;48.738;9.306;2023-09-18T08:46:32;7.80;;;1.20;;
4652;SDS011;9900;48.738;9.306;2023-09-18T08:49:01;7.07;;;1.67;;
4652;SDS011;9900;48.738;9.306;2023-09-18T08:51:30;4.50;;;1.33;;
4652;SDS011;9900;48.738;9.306;2023-09-18T08:54:00;5.77;;;1.47;;
4652;SDS011;9900;48.738;9.306;2023-09-18T08:56:30;4.77;;;1.27;;
4652;SDS011;9900;48.738;9.306;2023-09-18T08:59:02;5.37;;;1.93;;
4652;SDS011;9900;48.738;9.306;2023-09-18T09:01:31;6.93;;;2.07;;
4652;SDS011;9900;48.738;9.306;2023-09-18T09:04:00;6.73;;;1.37;;
4652;SDS011;9900;48.738;9.306;2023-09-18T09:06:29;8.13;;;1.60;;
4652;SDS011;9900;48.738;9.306;2023-09-18T09:08:58;3.27;;;1.40;;
4652;SDS011;9900;48.738;9.306;2023-09-18T09:11:26;2.93;;;1.20;;
4652;SDS011;9900;48.738;9.306;2023-09-18T09:14:09;6.40;;;1.57;;
4652;SDS011;9900;48.738;9.306;2023-09-18T09:16:47;6.83;;;1.70;;
4652;SDS011;9900;48.738;9.306;2023-09-18T09:19:17;7.23;;;1.60;;
4652;SDS011;9900;48.738;9.306;2023-09-18T09:21:47;4.40;;;1.70;;
4652;SDS011;9900;48.738;9.306;2023-09-18T09:24:18;3.83;;;2.10;;
4652;SDS011;9900;48.738;9.306;2023-09-18T09:27:04;4.17;;;1.47;;
4652;SDS011;9900;48.738;9.306;2023-09-18T09:29:35;4.30;;;1.30;;
4652;SDS011;9900;48.738;9.306;2023-09-18T09:32:14;5.30;;;1.73;;
4652;SDS011;9900;48.738;9.306;2023-09-18T09:34:44;7.87;;;1.70;;
4652;SDS011;9900;48.738;9.306;2023-09-18T09:37:13;4.90;;;1.20;;
4652;SDS011;9900;48.738;9.306;2023-09-18T09:39:48;4.50;;;1.67;;
4652;SDS011;9900;48.738;9.306;2023-09-18T09:42:18;6.00;;;2.40;;
4652;SDS011;9900;48.738;9.306;2023-09-18T09:45:00;3.50;;;1.20;;
4652;SDS011;9900;48.738;9.306;2023-09-18T09:47:34;4.83;;;2.23;;
4652;SDS011;9900;48.738;9.306;2023-09-18T09:50:06;2.70;;;1.50;;
4652;SDS011;9900;48.738;9.306;2023-09-18T09:52:40;6.67;;;1.67;;
4652;SDS011;9900;48.738;9.306;2023-09-18T09:55:21;5.23;;;1.37;;
4652;SDS011;9900;48.738;9.306;2023-09-18T09:57:52;4.03;;;1.80;;
4652;SDS011;9900;48.738;9.306;2023-09-18T10:00:28;6.27;;;2.50;;
4652;SDS011;9900;48.738;9.306;2023-09-18T10:03:00;6.07;;;2.43;;
4652;SDS011;9900;48.738;9.306;2023-09-18T10:05:31;3.40;;;1.70;;
4652;SDS011;9900;48.738;9.306;2023-09-18T10:08:03;7.90;;;1.60;;
4652;SDS011;9900;48.738;9.306;2023-09-18T10:10:35;3.00;;;1.57;;
4652;SDS011;9900;48.738;9.306;2023-09-18T10:13:12;7.03;;;1.93;;
4652;SDS011;9900;48.738;9.306;2023-09-18T10:15:47;6.67;;;1.90;;
4652;SDS011;9900;48.738;9.306;2023-09-18T10:18:17;6.97;;;2.37;;
4652;SDS011;9900;48.738;9.306;2023-09-18T10:20:51;9.00;;;1.80;;
4652;SDS011;9900;48.738;9.306;2023-09-18T10:23:28;7.07;;;1.73;;
4652;SDS011;9900;48.738;9.306;2023-09-18T10:26:07;7.37;;;1.67;;
4652;SDS011;9900;48.738;9.306;2023-09-18T10:28:39;3.53;;;1.43;;
4652;SDS011;9900;48.738;9.306;2023-09-18T10:31:09;5.20;;;1.60;;
4652;SDS011;9900;48.738;9.306;2023-09-18T10:33:40;3.23;;;1.50;;
4652;SDS011;9900;48.738;9.306;2023-09-18T10:36:09;4.70;;;1.60;;
4652;SDS011;9900;48.738;9.306;2023-09-18T10:38:39;4.37;;;1.67;;
4652;SDS011;9900;48.738;9.306;2023-09-18T10:41:08;9.17;;;2.00;;
4652;SDS011;9900;48.738;9.306;2023-09-18T10:43:39;5.23;;;1.80;;
4652;SDS011;9900;48.738;9.306;2023-09-18T10:46:07;11.00;;;1.70;;
4652;SDS011;9900;48.738;9.306;2023-09-18T10:48:38;9.30;;;2.13;;
4652;SDS011;9900;48.738;9.306;2023-09-18T10:51:10;5.63;;;1.80;;
4652;SDS011;9900;48.738;9.306;2023-09-18T10:53:41;3.87;;;1.60;;
4652;SDS011;9900;48.738;9.306;2023-09-18T10:56:10;4.97;;;1.87;;
4652;SDS011;9900;48.738;9.306;2023-09-18T10:58:38;6.67;;;4.10;;
4652;SDS011;9900;48.738;9.306;2023-09-18T11:01:10;6.70;;;3.90;;
4652;SDS011;9900;48.738;9.306;2023-09-18T11:03:39;5.00;;;1.80;;
4652;SDS011;9900;48.738;9.306;2023-09-18T11:06:10;2.30;;;1.70;;
4652;SDS011;9900;48.738;9.306;2023-09-18T11:08:45;7.80;;;2.67;;
4652;SDS011;9900;48.738;9.306;2023-09-18T11:11:17;4.10;;;1.70;;
4652;SDS011;9900;48.738;9.306;2023-09-18T11:13:48;3.37;;;1.70;;
4652;SDS011;9900;48.738;9.306;2023-09-18T11:16:35;7.00;;;2.20;;
4652;SDS011;9900;48.738;9.306;2023-09-18T11:19:10;6.97;;;1.77;;
4652;SDS011;9900;48.738;9.306;2023-09-18T11:21:41;4.57;;;1.67;;
4652;SDS011;9900;48.738;9.306;2023-09-18T11:24:15;8.53;;;1.90;;
4652;SDS011;9900;48.738;9.306;2023-09-18T11:26:46;5.23;;;1.50;;
4652;SDS011;9900;48.738;9.306;2023-09-18T11:29:16;7.27;;;2.30;;
4652;SDS011;9900;48.738;9.306;2023-09-18T11:31:52;7.30;;;2.00;;
4652;SDS011;9900;48.738;9.306;2023-09-18T11:34:23;4.03;;;1.53;;
4652;SDS011;9900;48.738;9.306;2023-09-18T11:36:53;5.07;;;1.70;;
4652;SDS011;9900;48.738;9.306;2023-09-18T11:39:32;6.10;;;2.03;;
4652;SDS011;9900;48.738;9.306;2023-09-18T11:42:06;3.77;;;1.97;;
4652;SDS011;9900;48.738;9.306;2023-09-18T11:44:37;3.63;;;2.37;;
4652;SDS011;9900;48.738;9.306;2023-09-18T11:47:14;4.70;;;2.10;;
4652;SDS011;9900;48.738;9.306;2023-09-18T11:49:49;6.20;;;2.13;;
4652;SDS011;9900;48.738;9.306;2023-09-18T11:52:22;4.17;;;1.80;;
4652;SDS011;9900;48.738;9.306;2023-09-18T11:54:52;3.53;;;1.70;;
4652;SDS011;9900;48.738;9.306;2023-09-18T11:57:24;15.43;;;2.43;;
4652;SDS011;9900;48.738;9.306;2023-09-18T11:59:54;9.70;;;1.87;;
4652;SDS011;9900;48.738;9.306;2023-09-18T12:02:29;2.57;;;1.57;;
4652;SDS011;9900;48.738;9.306;2023-09-18T12:05:09;3.93;;;1.70;;
4652;SDS011;9900;48.738;9.306;2023-09-18T12:07:39;3.97;;;1.93;;
4652;SDS011;9900;48.738;9.306;2023-09-18T12:10:12;5.40;;;2.13;;
4652;SDS011;9900;48.738;9.306;2023-09-18T12:12:42;3.83;;;1.80;;
4652;SDS011;9900;48.738;9.306;2023-09-18T12:15:11;3.77;;;2.07;;
4652;SDS011;9900;48.738;9.306;2023-09-18T12:17:42;8.27;;;2.30;;
4652;SDS011;9900;48.738;9.306;2023-09-18T12:20:14;3.93;;;1.63;;
4652;SDS011;9900;48.738;9.306;2023-09-18T12:22:46;11.83;;;5.47;;
4652;SDS011;9900;48.738;9.306;2023-09-18T12:25:16;3.63;;;1.70;;
4652;SDS011;9900;48.738;9.306;2023-09-18T12:27:46;6.30;;;1.60;;
4652;SDS011;9900;48.738;9.306;2023-09-18T12:30:20;2.40;;;1.60;;
4652;SDS011;9900;48.738;9.306;2023-09-18T12:32:52;8.27;;;5.67;;
4652;SDS011;9900;48.738;9.306;2023-09-18T12:35:21;4.83;;;2.30;;
4652;SDS011;9900;48.738;9.306;2023-09-18T12:37:52;4.33;;;1.53;;
4652;SDS011;9900;48.738;9.306;2023-09-18T12:40:22;3.77;;;1.30;;
4652;SDS011;9900;48.738;9.306;2023-09-18T12:42:53;4.43;;;2.10;;
4652;SDS011;9900;48.738;9.306;2023-09-18T12:45:23;5.57;;;1.87;;
4652;SDS011;9900;48.738;9.306;2023-09-18T12:47:55;2.10;;;1.40;;
4652;SDS011;9900;48.738;9.306;2023-09-18T12:50:25;1.47;;;1.10;;
4652;SDS011;9900;48.738;9.306;2023-09-18T12:53:05;4.20;;;1.70;;
4652;SDS011;9900;48.738;9.306;2023-09-18T12:55:35;10.40;;;1.40;;
4652;SDS011;9900;48.738;9.306;2023-09-18T12:58:04;3.47;;;1.43;;
4652;SDS011;9900;48.738;9.306;2023-09-18T13:00:35;3.00;;;1.23;;
4652;SDS011;9900;48.738;9.306;2023-09-18T13:03:05;4.67;;;1.50;;
4652;SDS011;9900;48.738;9.306;2023-09-18T13:05:35;4.13;;;1.27;;
4652;SDS011;9900;48.738;9.306;2023-09-18T13:08:04;2.70;;;1.50;;
4652;SDS011;9900;48.738;9.306;2023-09-18T13:10:40;1.77;;;1.40;;
4652;SDS011;9900;48.738;9.306;2023-09-18T13:13:17;3.43;;;1.37;;
4652;SDS011;9900;48.738;9.306;2023-09-18T13:15:46;4.13;;;1.33;;
4652;SDS011;9900;48.738;9.306;2023-09-18T13:18:20;7.73;;;3.73;;
4652;SDS011;9900;48.738;9.306;2023-09-18T13:20:51;6.37;;;1.63;;
4652;SDS011;9900;48.738;9.306;2023-09-18T13:23:21;6.07;;;1.30;;
4652;SDS011;9900;48.738;9.306;2023-09-18T13:26:00;2.93;;;1.00;;
4652;SDS011;9900;48.738;9.306;2023-09-18T13:28:30;3.90;;;1.53;;
4652;SDS011;9900;48.738;9.306;2023-09-18T13:31:02;5.60;;;1.30;;
4652;SDS011;9900;48.738;9.306;2023-09-18T13:33:39;2.90;;;1.10;;
4652;SDS011;9900;48.738;9.306;2023-09-18T13:36:11;3.43;;;1.17;;
4652;SDS011;9900;48.738;9.306;2023-09-18T13:38:40;2.07;;;1.13;;
4652;SDS011;9900;48.738;9.306;2023-09-18T13:41:10;5.07;;;1.87;;
4652;SDS011;9900;48.738;9.306;2023-09-18T13:43:40;1.33;;;0.93;;
4652;SDS011;9900;48.738;9.306;2023-09-18T13:46:10;3.20;;;1.40;;
4652;SDS011;9900;48.738;9.306;2023-09-18T13:48:40;2.80;;;1.40;;
4652;SDS011;9900;48.738;9.306;2023-09-18T13:51:09;3.70;;;1.20;;
4652;SDS011;9900;48.738;9.306;2023-09-18T13:53:39;2.90;;;1.53;;
4652;SDS011;9900;48.738;9.306;2023-09-18T13:56:08;6.47;;;1.50;;
4652;SDS011;9900;48.738;9.306;2023-09-18T13:58:40;2.87;;;1.47;;
4652;SDS011;9900;48.738;9.306;2023-09-18T14:01:09;3.67;;;1.10;;
4652;SDS011;9900;48.738;9.306;2023-09-18T14:03:38;10.77;;;1.30;;
4652;SDS011;9900;48.738;9.306;2023-09-18T14:06:11;2.43;;;1.30;;
4652;SDS011;9900;48.738;9.306;2023-09-18T14:08:40;3.30;;;1.67;;
4652;SDS011;9900;48.738;9.306;2023-09-18T14:11:09;5.90;;;1.47;;
4652;SDS011;9900;48.738;9.306;2023-09-18T14:13:41;2.13;;;1.20;;
4652;SDS011;9900;48.738;9.306;2023-09-18T14:16:10;3.10;;;1.20;;
4652;SDS011;9900;48.738;9.306;2023-09-18T14:18:42;4.90;;;1.40;;
4652;SDS011;9900;48.738;9.306;2023-09-18T14:21:12;3.87;;;1.50;;
4652;SDS011;9900;48.738;9.306;2023-09-18T14:23:41;5.80;;;2.20;;
4652;SDS011;9900;48.738;9.306;2023-09-18T14:26:11;4.00;;;1.40;;
4652;SDS011;9900;48.738;9.306;2023-09-18T14:28:39;3.37;;;1.60;;
4652;SDS011;9900;48.738;9.306;2023-09-18T14:31:08;3.33;;;1.40;;
4652;SDS011;9900;48.738;9.306;2023-09-18T14:33:37;2.33;;;1.40;;
4652;SDS011;9900;48.738;9.306;2023-09-18T14:36:07;2.43;;;1.10;;
4652;SDS011;9900;48.738;9.306;2023-09-18T14:38:38;3.67;;;1.43;;
4652;SDS011;9900;48.738;9.306;2023-09-18T14:41:06;3.70;;;1.40;;
4652;SDS011;9900;48.738;9.306;2023-09-18T14:43:36;5.60;;;1.30;;
4652;SDS011;9900;48.738;9.306;2023-09-18T14:46:05;3.53;;;1.37;;
4652;SDS011;9900;48.738;9.306;2023-09-18T14:48:34;3.10;;;1.40;;
4652;SDS011;9900;48.738;9.306;2023-09-18T14:51:03;1.77;;;1.20;;
4652;SDS011;9900;48.738;9.306;2023-09-18T14:53:32;3.23;;;1.50;;
4652;SDS011;9900;48.738;9.306;2023-09-18T14:56:02;2.03;;;1.40;;
4652;SDS011;9900;48.738;9.306;2023-09-18T14:58:32;4.27;;;1.27;;
4652;SDS011;9900;48.738;9.306;2023-09-18T15:01:01;2.33;;;0.90;;
4652;SDS011;9900;48.738;9.306;2023-09-18T15:03:30;1.77;;;1.00;;
4652;SDS011;9900;48.738;9.306;2023-09-18T15:05:59;1.73;;;1.00;;
4652;SDS011;9900;48.738;9.306;2023-09-18T15:08:29;3.10;;;1.00;;
4652;SDS011;9900;48.738;9.306;2023-09-18T15:10:58;2.10;;;1.00;;
4652;SDS011;9900;48.738;9.306;2023-09-18T15:13:28;1.93;;;1.40;;
4652;SDS011;9900;48.738;9.306;2023-09-18T15:15:57;1.37;;;1.20;;
4652;SDS011;9900;48.738;9.306;2023-09-18T15:18:25;5.23;;;1.03;;
4652;SDS011;9900;48.738;9.306;2023-09-18T15:20:54;2.23;;;1.10;;
4652;SDS011;9900;48.738;9.306;2023-09-18T15:23:23;1.30;;;0.90;;
4652;SDS011;9900;48.738;9.306;2023-09-18T15:25:52;1.53;;;1.17;;
4652;SDS011;9900;48.738;9.306;2023-09-18T15:28:23;2.80;;;1.20;;
4652;SDS011;9900;48.738;9.306;2023-09-18T15:30:53;4.83;;;1.30;;